sensor_id;sensor_type;location;lat;lon;timestamp;temperature;humidity
6252;DHT22;3159;52.414;9.784;2023-03-07T00:01:23;3.30;99.90
6252;DHT22;3159;52.414;9.784;2023-03-07T00:03:51;3.30;99.90
6252;DHT22;3159;52.414;9.784;2023-03-07T00:06:17;3.30;99.90
6252;DHT22;3159;52.414;9.784;2023-03-07T00:08:47;3.40;99.90
6252;DHT22;3159;52.414;9.784;2023-03-07T00:11:14;3.30;99.90
6252;DHT22;3159;52.414;9.784;2023-03-07T00:13:40;3.40;99.90
6252;DHT22;3159;52.414;9.784;2023-03-07T00:16:10;3.30;99.90
6252;DHT22;3159;52.414;9.784;2023-03-07T00:18:39;3.40;99.90
6252;DHT22;3159;52.414;9.784;2023-03-07T00:21:08;3.30;99.90
6252;DHT22;3159;52.414;9.784;2023-03-07T00:23:36;3.30;99.90
6252;DHT22;3159;52.414;9.784;2023-03-07T00:26:05;3.40;99.90
6252;DHT22;3159;52.414;9.784;2023-03-07T00:28:32;3.30;99.90
6252;DHT22;3159;52.414;9.784;2023-03-07T00:31:00;3.30;99.90
6252;DHT22;3159;52.414;9.784;2023-03-07T00:33:27;3.30;99.90
6252;DHT22;3159;52.414;9.784;2023-03-07T00:35:56;3.30;99.90
6252;DHT22;3159;52.414;9.784;2023-03-07T00:38:24;3.30;99.90
6252;DHT22;3159;52.414;9.784;2023-03-07T00:40:58;3.20;99.90
6252;DHT22;3159;52.414;9.784;2023-03-07T00:43:26;3.30;99.90
6252;DHT22;3159;52.414;9.784;2023-03-07T00:45:53;3.30;99.90
6252;DHT22;3159;52.414;9.784;2023-03-07T00:48:19;3.40;99.90
6252;DHT22;3159;52.414;9.784;2023-03-07T00:50:47;3.30;99.90
6252;DHT22;3159;52.414;9.784;2023-03-07T00:53:15;3.30;99.90
6252;DHT22;3159;52.414;9.784;2023-03-07T00:55:51;3.30;99.90
6252;DHT22;3159;52.414;9.784;2023-03-07T00:58:18;3.30;99.90
6252;DHT22;3159;52.414;9.784;2023-03-07T01:00:45;3.30;99.90
6252;DHT22;3159;52.414;9.784;2023-03-07T01:03:11;3.30;99.90
6252;DHT22;3159;52.414;9.784;2023-03-07T01:05:40;3.30;99.90
6252;DHT22;3159;52.414;9.784;2023-03-07T01:08:07;3.20;99.90
6252;DHT22;3159;52.414;9.784;2023-03-07T01:10:35;3.30;99.90
6252;DHT22;3159;52.414;9.784;2023-03-07T01:13:03;3.30;99.90
6252;DHT22;3159;52.414;9.784;2023-03-07T01:15:30;3.30;99.90
6252;DHT22;3159;52.414;9.784;2023-03-07T01:17:57;3.20;99.90
6252;DHT22;3159;52.414;9.784;2023-03-07T01:20:24;3.30;99.90
6252;DHT22;3159;52.414;9.784;2023-03-07T01:22:50;3.20;99.90
6252;DHT22;3159;52.414;9.784;2023-03-07T01:25:17;3.20;99.90
6252;DHT22;3159;52.414;9.784;2023-03-07T01:27:45;3.20;99.90
6252;DHT22;3159;52.414;9.784;2023-03-07T01:30:12;3.10;99.90
6252;DHT22;3159;52.414;9.784;2023-03-07T01:32:39;3.10;99.90
6252;DHT22;3159;52.414;9.784;2023-03-07T01:35:07;3.20;99.90
6252;DHT22;3159;52.414;9.784;2023-03-07T01:37:34;3.20;99.90
6252;DHT22;3159;52.414;9.784;2023-03-07T01:40:00;3.20;99.90
6252;DHT22;3159;52.414;9.784;2023-03-07T01:42:30;3.20;99.90
6252;DHT22;3159;52.414;9.784;2023-03-07T01:45:02;3.10;99.90
6252;DHT22;3159;52.414;9.784;2023-03-07T01:47:29;3.20;99.90
6252;DHT22;3159;52.414;9.784;2023-03-07T01:49:58;3.20;99.90
6252;DHT22;3159;52.414;9.784;2023-03-07T01:52:29;3.20;99.90
6252;DHT22;3159;52.414;9.784;2023-03-07T01:54:59;3.10;99.90
6252;DHT22;3159;52.414;9.784;2023-03-07T01:57:30;3.10;99.90
6252;DHT22;3159;52.414;9.784;2023-03-07T02:00:03;3.10;99.90
6252;DHT22;3159;52.414;9.784;2023-03-07T02:02:34;3.10;99.90
6252;DHT22;3159;52.414;9.784;2023-03-07T02:05:06;3.10;99.90
6252;DHT22;3159;52.414;9.784;2023-03-07T02:07:37;3.10;99.90
6252;DHT22;3159;52.414;9.784;2023-03-07T02:10:07;3.00;99.90
6252;DHT22;3159;52.414;9.784;2023-03-07T02:12:37;3.10;99.90
6252;DHT22;3159;52.414;9.784;2023-03-07T02:15:07;3.00;99.90
6252;DHT22;3159;52.414;9.784;2023-03-07T02:17:34;3.00;99.90
6252;DHT22;3159;52.414;9.784;2023-03-07T02:20:22;3.00;99.90
6252;DHT22;3159;52.414;9.784;2023-03-07T02:22:50;3.00;99.90
6252;DHT22;3159;52.414;9.784;2023-03-07T02:25:21;3.00;99.90
6252;DHT22;3159;52.414;9.784;2023-03-07T02:27:51;3.10;99.90
6252;DHT22;3159;52.414;9.784;2023-03-07T02:30:19;3.00;99.90
6252;DHT22;3159;52.414;9.784;2023-03-07T02:32:46;3.00;99.90
6252;DHT22;3159;52.414;9.784;2023-03-07T02:35:14;3.00;99.90
6252;DHT22;3159;52.414;9.784;2023-03-07T02:37:43;3.10;99.90
6252;DHT22;3159;52.414;9.784;2023-03-07T02:40:13;3.00;99.90
6252;DHT22;3159;52.414;9.784;2023-03-07T02:42:41;3.00;99.90
6252;DHT22;3159;52.414;9.784;2023-03-07T02:45:13;3.00;99.90
6252;DHT22;3159;52.414;9.784;2023-03-07T02:47:40;3.10;99.90
6252;DHT22;3159;52.414;9.784;2023-03-07T02:50:09;3.10;99.90
6252;DHT22;3159;52.414;9.784;2023-03-07T02:52:36;3.20;99.90
6252;DHT22;3159;52.414;9.784;2023-03-07T02:55:03;3.10;99.90
6252;DHT22;3159;52.414;9.784;2023-03-07T02:57:30;3.10;99.90
6252;DHT22;3159;52.414;9.784;2023-03-07T02:59:57;3.10;99.90
6252;DHT22;3159;52.414;9.784;2023-03-07T03:02:25;3.10;99.90
6252;DHT22;3159;52.414;9.784;2023-03-07T03:04:52;3.10;99.90
6252;DHT22;3159;52.414;9.784;2023-03-07T03:07:19;3.20;99.90
6252;DHT22;3159;52.414;9.784;2023-03-07T03:09:46;3.10;99.90
6252;DHT22;3159;52.414;9.784;2023-03-07T03:12:12;3.10;99.90
6252;DHT22;3159;52.414;9.784;2023-03-07T03:14:39;3.10;99.90
6252;DHT22;3159;52.414;9.784;2023-03-07T03:17:06;3.20;99.90
6252;DHT22;3159;52.414;9.784;2023-03-07T03:19:34;3.30;99.90
6252;DHT22;3159;52.414;9.784;2023-03-07T03:22:01;3.30;99.90
6252;DHT22;3159;52.414;9.784;2023-03-07T03:24:28;3.30;99.90
6252;DHT22;3159;52.414;9.784;2023-03-07T03:26:55;3.30;99.90
6252;DHT22;3159;52.414;9.784;2023-03-07T03:29:22;3.30;99.90
6252;DHT22;3159;52.414;9.784;2023-03-07T03:31:50;3.40;99.90
6252;DHT22;3159;52.414;9.784;2023-03-07T03:34:17;3.40;99.90
6252;DHT22;3159;52.414;9.784;2023-03-07T03:36:45;3.40;99.90
6252;DHT22;3159;52.414;9.784;2023-03-07T03:39:12;3.30;99.90
6252;DHT22;3159;52.414;9.784;2023-03-07T03:41:39;3.40;99.90
6252;DHT22;3159;52.414;9.784;2023-03-07T03:44:06;3.50;99.90
6252;DHT22;3159;52.414;9.784;2023-03-07T03:46:34;3.50;99.90
6252;DHT22;3159;52.414;9.784;2023-03-07T03:49:01;3.60;99.90
6252;DHT22;3159;52.414;9.784;2023-03-07T03:51:28;3.50;99.90
6252;DHT22;3159;52.414;9.784;2023-03-07T03:53:57;3.60;99.90
6252;DHT22;3159;52.414;9.784;2023-03-07T03:56:25;3.60;99.90
6252;DHT22;3159;52.414;9.784;2023-03-07T03:58:54;3.70;99.90
6252;DHT22;3159;52.414;9.784;2023-03-07T04:01:22;3.70;99.90
6252;DHT22;3159;52.414;9.784;2023-03-07T04:03:51;3.70;99.90
6252;DHT22;3159;52.414;9.784;2023-03-07T04:06:20;3.70;99.90
6252;DHT22;3159;52.414;9.784;2023-03-07T04:08:48;3.70;99.90
6252;DHT22;3159;52.414;9.784;2023-03-07T04:11:16;3.70;99.90
6252;DHT22;3159;52.414;9.784;2023-03-07T04:13:43;3.70;99.90
6252;DHT22;3159;52.414;9.784;2023-03-07T04:16:10;3.80;99.90
6252;DHT22;3159;52.414;9.784;2023-03-07T04:18:37;3.70;99.90
6252;DHT22;3159;52.414;9.784;2023-03-07T04:21:05;3.80;99.90
6252;DHT22;3159;52.414;9.784;2023-03-07T04:23:32;3.80;99.90
6252;DHT22;3159;52.414;9.784;2023-03-07T04:26:00;3.80;99.90
6252;DHT22;3159;52.414;9.784;2023-03-07T04:28:30;3.80;99.90
6252;DHT22;3159;52.414;9.784;2023-03-07T04:31:08;3.80;99.90
6252;DHT22;3159;52.414;9.784;2023-03-07T04:33:35;3.80;99.90
6252;DHT22;3159;52.414;9.784;2023-03-07T04:36:01;3.80;99.90
6252;DHT22;3159;52.414;9.784;2023-03-07T04:38:28;3.80;99.90
6252;DHT22;3159;52.414;9.784;2023-03-07T04:40:55;3.70;99.90
6252;DHT22;3159;52.414;9.784;2023-03-07T04:43:22;3.70;99.90
6252;DHT22;3159;52.414;9.784;2023-03-07T04:45:52;3.70;99.90
6252;DHT22;3159;52.414;9.784;2023-03-07T04:48:18;3.80;99.90
6252;DHT22;3159;52.414;9.784;2023-03-07T04:50:48;3.80;99.90
6252;DHT22;3159;52.414;9.784;2023-03-07T04:53:15;3.80;99.90
6252;DHT22;3159;52.414;9.784;2023-03-07T04:55:43;3.70;99.90
6252;DHT22;3159;52.414;9.784;2023-03-07T04:58:10;3.40;99.90
6252;DHT22;3159;52.414;9.784;2023-03-07T05:00:38;3.40;99.90
6252;DHT22;3159;52.414;9.784;2023-03-07T05:03:07;3.30;99.90
6252;DHT22;3159;52.414;9.784;2023-03-07T05:05:35;3.30;99.90
6252;DHT22;3159;52.414;9.784;2023-03-07T05:08:02;3.30;99.90
6252;DHT22;3159;52.414;9.784;2023-03-07T05:10:29;3.30;99.90
6252;DHT22;3159;52.414;9.784;2023-03-07T05:12:56;3.30;99.90
6252;DHT22;3159;52.414;9.784;2023-03-07T05:15:23;3.30;99.90
6252;DHT22;3159;52.414;9.784;2023-03-07T05:17:50;3.20;99.90
6252;DHT22;3159;52.414;9.784;2023-03-07T05:20:18;3.10;99.90
6252;DHT22;3159;52.414;9.784;2023-03-07T05:22:45;2.90;99.90
6252;DHT22;3159;52.414;9.784;2023-03-07T05:25:12;3.00;99.90
6252;DHT22;3159;52.414;9.784;2023-03-07T05:27:39;2.90;99.90
6252;DHT22;3159;52.414;9.784;2023-03-07T05:30:07;3.00;99.90
6252;DHT22;3159;52.414;9.784;2023-03-07T05:32:34;2.90;99.90
6252;DHT22;3159;52.414;9.784;2023-03-07T05:35:00;2.90;99.90
6252;DHT22;3159;52.414;9.784;2023-03-07T05:37:29;3.00;99.90
6252;DHT22;3159;52.414;9.784;2023-03-07T05:39:55;3.10;99.90
6252;DHT22;3159;52.414;9.784;2023-03-07T05:42:22;3.00;99.90
6252;DHT22;3159;52.414;9.784;2023-03-07T05:44:49;3.00;99.90
6252;DHT22;3159;52.414;9.784;2023-03-07T05:47:16;2.90;99.90
6252;DHT22;3159;52.414;9.784;2023-03-07T05:49:42;2.90;99.90
6252;DHT22;3159;52.414;9.784;2023-03-07T05:52:09;2.90;99.90
6252;DHT22;3159;52.414;9.784;2023-03-07T05:54:37;2.90;99.90
6252;DHT22;3159;52.414;9.784;2023-03-07T05:57:04;2.80;99.90
6252;DHT22;3159;52.414;9.784;2023-03-07T05:59:31;2.80;99.90
6252;DHT22;3159;52.414;9.784;2023-03-07T06:01:58;2.80;99.90
6252;DHT22;3159;52.414;9.784;2023-03-07T06:04:24;2.80;99.90
6252;DHT22;3159;52.414;9.784;2023-03-07T06:06:51;2.80;99.90
6252;DHT22;3159;52.414;9.784;2023-03-07T06:09:18;2.90;99.90
6252;DHT22;3159;52.414;9.784;2023-03-07T06:11:48;2.80;99.90
6252;DHT22;3159;52.414;9.784;2023-03-07T06:14:14;2.80;99.90
6252;DHT22;3159;52.414;9.784;2023-03-07T06:16:41;2.90;99.90
6252;DHT22;3159;52.414;9.784;2023-03-07T06:19:08;2.90;99.90
6252;DHT22;3159;52.414;9.784;2023-03-07T06:21:35;2.90;99.90
6252;DHT22;3159;52.414;9.784;2023-03-07T06:24:02;3.00;99.90
6252;DHT22;3159;52.414;9.784;2023-03-07T06:26:29;3.00;99.90
6252;DHT22;3159;52.414;9.784;2023-03-07T06:28:57;3.10;99.90
6252;DHT22;3159;52.414;9.784;2023-03-07T06:31:24;3.20;99.90
6252;DHT22;3159;52.414;9.784;2023-03-07T06:33:51;3.20;99.90
6252;DHT22;3159;52.414;9.784;2023-03-07T06:36:19;3.20;99.90
6252;DHT22;3159;52.414;9.784;2023-03-07T06:38:46;3.20;99.90
6252;DHT22;3159;52.414;9.784;2023-03-07T06:41:13;3.20;99.90
6252;DHT22;3159;52.414;9.784;2023-03-07T06:43:40;3.30;99.90
6252;DHT22;3159;52.414;9.784;2023-03-07T06:46:08;3.30;99.90
6252;DHT22;3159;52.414;9.784;2023-03-07T06:48:35;3.40;99.90
6252;DHT22;3159;52.414;9.784;2023-03-07T06:51:05;3.30;99.90
6252;DHT22;3159;52.414;9.784;2023-03-07T06:53:32;3.40;99.90
6252;DHT22;3159;52.414;9.784;2023-03-07T06:55:59;3.40;99.90
6252;DHT22;3159;52.414;9.784;2023-03-07T06:58:26;3.50;99.90
6252;DHT22;3159;52.414;9.784;2023-03-07T07:00:53;3.50;99.90
6252;DHT22;3159;52.414;9.784;2023-03-07T07:03:21;3.50;99.90
6252;DHT22;3159;52.414;9.784;2023-03-07T07:05:48;3.50;99.90
6252;DHT22;3159;52.414;9.784;2023-03-07T07:08:14;3.50;99.90
6252;DHT22;3159;52.414;9.784;2023-03-07T07:10:41;3.50;99.90
6252;DHT22;3159;52.414;9.784;2023-03-07T07:13:08;3.60;99.90
6252;DHT22;3159;52.414;9.784;2023-03-07T07:15:37;3.60;99.90
6252;DHT22;3159;52.414;9.784;2023-03-07T07:18:03;3.70;99.90
6252;DHT22;3159;52.414;9.784;2023-03-07T07:20:32;3.70;99.90
6252;DHT22;3159;52.414;9.784;2023-03-07T07:22:58;3.70;99.90
6252;DHT22;3159;52.414;9.784;2023-03-07T07:25:25;3.70;99.90
6252;DHT22;3159;52.414;9.784;2023-03-07T07:27:52;3.70;99.90
6252;DHT22;3159;52.414;9.784;2023-03-07T07:30:19;3.70;99.90
6252;DHT22;3159;52.414;9.784;2023-03-07T07:32:47;3.70;99.90
6252;DHT22;3159;52.414;9.784;2023-03-07T07:35:15;3.70;99.90
6252;DHT22;3159;52.414;9.784;2023-03-07T07:37:43;3.60;99.90
6252;DHT22;3159;52.414;9.784;2023-03-07T07:40:11;3.60;99.90
6252;DHT22;3159;52.414;9.784;2023-03-07T07:42:38;3.70;99.90
6252;DHT22;3159;52.414;9.784;2023-03-07T07:45:06;3.60;99.90
6252;DHT22;3159;52.414;9.784;2023-03-07T07:47:33;3.70;99.90
6252;DHT22;3159;52.414;9.784;2023-03-07T07:49:59;3.70;99.90
6252;DHT22;3159;52.414;9.784;2023-03-07T07:52:26;3.60;99.90
6252;DHT22;3159;52.414;9.784;2023-03-07T07:54:54;3.60;99.90
6252;DHT22;3159;52.414;9.784;2023-03-07T07:57:21;3.60;99.90
6252;DHT22;3159;52.414;9.784;2023-03-07T07:59:48;3.50;99.90
6252;DHT22;3159;52.414;9.784;2023-03-07T08:02:14;3.60;99.90
6252;DHT22;3159;52.414;9.784;2023-03-07T08:04:41;3.60;99.90
6252;DHT22;3159;52.414;9.784;2023-03-07T08:07:08;3.60;99.90
6252;DHT22;3159;52.414;9.784;2023-03-07T08:09:35;3.50;99.90
6252;DHT22;3159;52.414;9.784;2023-03-07T08:12:05;3.50;99.90
6252;DHT22;3159;52.414;9.784;2023-03-07T08:14:32;3.60;99.90
6252;DHT22;3159;52.414;9.784;2023-03-07T08:16:59;3.60;99.90
6252;DHT22;3159;52.414;9.784;2023-03-07T08:19:26;3.60;99.90
6252;DHT22;3159;52.414;9.784;2023-03-07T08:21:53;3.70;99.90
6252;DHT22;3159;52.414;9.784;2023-03-07T08:24:19;3.70;99.90
6252;DHT22;3159;52.414;9.784;2023-03-07T08:26:46;3.60;99.90
6252;DHT22;3159;52.414;9.784;2023-03-07T08:29:14;3.60;99.90
6252;DHT22;3159;52.414;9.784;2023-03-07T08:31:42;3.60;99.90
6252;DHT22;3159;52.414;9.784;2023-03-07T08:34:10;3.70;99.90
6252;DHT22;3159;52.414;9.784;2023-03-07T08:36:36;3.50;99.90
6252;DHT22;3159;52.414;9.784;2023-03-07T08:39:03;3.40;99.90
6252;DHT22;3159;52.414;9.784;2023-03-07T08:41:30;3.50;99.90
6252;DHT22;3159;52.414;9.784;2023-03-07T08:43:57;3.40;99.90
6252;DHT22;3159;52.414;9.784;2023-03-07T08:46:25;3.40;99.90
6252;DHT22;3159;52.414;9.784;2023-03-07T08:48:52;3.40;99.90
6252;DHT22;3159;52.414;9.784;2023-03-07T08:51:19;3.30;99.90
6252;DHT22;3159;52.414;9.784;2023-03-07T08:53:46;3.20;99.90
6252;DHT22;3159;52.414;9.784;2023-03-07T08:56:14;3.10;99.90
6252;DHT22;3159;52.414;9.784;2023-03-07T08:58:42;3.10;99.90
6252;DHT22;3159;52.414;9.784;2023-03-07T09:01:09;3.00;99.90
6252;DHT22;3159;52.414;9.784;2023-03-07T09:03:39;3.10;99.90
6252;DHT22;3159;52.414;9.784;2023-03-07T09:06:05;3.10;99.90
6252;DHT22;3159;52.414;9.784;2023-03-07T09:08:32;2.90;99.90
6252;DHT22;3159;52.414;9.784;2023-03-07T09:11:00;2.90;99.90
6252;DHT22;3159;52.414;9.784;2023-03-07T09:13:28;3.00;99.90
6252;DHT22;3159;52.414;9.784;2023-03-07T09:15:54;3.00;99.90
6252;DHT22;3159;52.414;9.784;2023-03-07T09:18:21;3.00;99.90
6252;DHT22;3159;52.414;9.784;2023-03-07T09:20:49;2.90;99.90
6252;DHT22;3159;52.414;9.784;2023-03-07T09:23:16;2.80;99.90
6252;DHT22;3159;52.414;9.784;2023-03-07T09:25:43;2.90;99.90
6252;DHT22;3159;52.414;9.784;2023-03-07T09:28:10;2.90;99.90
6252;DHT22;3159;52.414;9.784;2023-03-07T09:30:37;2.80;99.90
6252;DHT22;3159;52.414;9.784;2023-03-07T09:33:03;2.80;99.90
6252;DHT22;3159;52.414;9.784;2023-03-07T09:35:30;2.80;99.90
6252;DHT22;3159;52.414;9.784;2023-03-07T09:37:59;2.70;99.90
6252;DHT22;3159;52.414;9.784;2023-03-07T09:40:27;2.70;99.90
6252;DHT22;3159;52.414;9.784;2023-03-07T09:42:59;2.60;99.90
6252;DHT22;3159;52.414;9.784;2023-03-07T09:45:37;2.60;99.90
6252;DHT22;3159;52.414;9.784;2023-03-07T09:51:14;2.70;99.90
6252;DHT22;3159;52.414;9.784;2023-03-07T09:53:47;2.50;99.90
6252;DHT22;3159;52.414;9.784;2023-03-07T09:56:21;2.50;99.90
6252;DHT22;3159;52.414;9.784;2023-03-07T09:58:54;2.50;99.90
6252;DHT22;3159;52.414;9.784;2023-03-07T10:01:26;2.40;99.90
6252;DHT22;3159;52.414;9.784;2023-03-07T10:03:59;2.70;99.90
6252;DHT22;3159;52.414;9.784;2023-03-07T10:06:30;2.40;99.90
6252;DHT22;3159;52.414;9.784;2023-03-07T10:09:00;2.30;99.90
6252;DHT22;3159;52.414;9.784;2023-03-07T10:14:40;2.40;99.90
6252;DHT22;3159;52.414;9.784;2023-03-07T10:17:14;2.30;99.90
6252;DHT22;3159;52.414;9.784;2023-03-07T10:19:48;2.40;99.90
6252;DHT22;3159;52.414;9.784;2023-03-07T10:22:20;2.20;99.90
6252;DHT22;3159;52.414;9.784;2023-03-07T10:25:03;2.30;99.90
6252;DHT22;3159;52.414;9.784;2023-03-07T10:27:31;2.20;99.90
6252;DHT22;3159;52.414;9.784;2023-03-07T10:29:59;2.20;99.90
6252;DHT22;3159;52.414;9.784;2023-03-07T10:32:31;2.20;99.90
6252;DHT22;3159;52.414;9.784;2023-03-07T10:35:05;2.30;99.90
6252;DHT22;3159;52.414;9.784;2023-03-07T10:37:44;2.30;99.90
6252;DHT22;3159;52.414;9.784;2023-03-07T10:40:23;2.40;99.90
6252;DHT22;3159;52.414;9.784;2023-03-07T10:42:51;2.30;99.90
6252;DHT22;3159;52.414;9.784;2023-03-07T10:45:18;2.40;99.90
6252;DHT22;3159;52.414;9.784;2023-03-07T10:47:46;2.30;99.90
6252;DHT22;3159;52.414;9.784;2023-03-07T10:50:26;2.50;99.90
6252;DHT22;3159;52.414;9.784;2023-03-07T10:52:57;2.40;99.90
6252;DHT22;3159;52.414;9.784;2023-03-07T10:55:35;2.50;99.90
6252;DHT22;3159;52.414;9.784;2023-03-07T10:58:13;2.40;99.90
6252;DHT22;3159;52.414;9.784;2023-03-07T11:00:41;2.50;99.90
6252;DHT22;3159;52.414;9.784;2023-03-07T11:03:22;2.50;99.90
6252;DHT22;3159;52.414;9.784;2023-03-07T11:05:49;2.50;99.90
6252;DHT22;3159;52.414;9.784;2023-03-07T11:08:28;2.50;99.90
6252;DHT22;3159;52.414;9.784;2023-03-07T11:10:58;2.50;99.90
6252;DHT22;3159;52.414;9.784;2023-03-07T11:13:25;2.40;99.90
6252;DHT22;3159;52.414;9.784;2023-03-07T11:16:08;2.40;99.90
6252;DHT22;3159;52.414;9.784;2023-03-07T11:18:37;2.40;99.90
6252;DHT22;3159;52.414;9.784;2023-03-07T11:21:05;2.40;99.90
6252;DHT22;3159;52.414;9.784;2023-03-07T11:23:31;2.50;99.90
6252;DHT22;3159;52.414;9.784;2023-03-07T11:26:16;2.60;99.90
6252;DHT22;3159;52.414;9.784;2023-03-07T11:28:42;2.80;99.90
6252;DHT22;3159;52.414;9.784;2023-03-07T11:31:16;2.70;99.90
6252;DHT22;3159;52.414;9.784;2023-03-07T11:33:50;2.70;99.90
6252;DHT22;3159;52.414;9.784;2023-03-07T11:36:22;2.60;99.90
6252;DHT22;3159;52.414;9.784;2023-03-07T11:38:58;2.60;99.90
6252;DHT22;3159;52.414;9.784;2023-03-07T11:41:29;2.60;99.90
6252;DHT22;3159;52.414;9.784;2023-03-07T11:44:09;2.70;99.90
6252;DHT22;3159;52.414;9.784;2023-03-07T11:46:55;2.70;99.90
6252;DHT22;3159;52.414;9.784;2023-03-07T11:49:38;2.80;99.90
6252;DHT22;3159;52.414;9.784;2023-03-07T11:52:19;2.70;99.90
6252;DHT22;3159;52.414;9.784;2023-03-07T11:54:52;2.80;99.90
6252;DHT22;3159;52.414;9.784;2023-03-07T11:57:40;2.70;99.90
6252;DHT22;3159;52.414;9.784;2023-03-07T12:00:22;2.80;99.90
6252;DHT22;3159;52.414;9.784;2023-03-07T12:02:59;2.60;99.90
6252;DHT22;3159;52.414;9.784;2023-03-07T12:05:46;2.60;99.90
6252;DHT22;3159;52.414;9.784;2023-03-07T12:08:45;2.80;99.90
6252;DHT22;3159;52.414;9.784;2023-03-07T12:11:23;2.70;99.90
6252;DHT22;3159;52.414;9.784;2023-03-07T12:14:05;2.90;99.90
6252;DHT22;3159;52.414;9.784;2023-03-07T12:16:42;2.90;99.90
6252;DHT22;3159;52.414;9.784;2023-03-07T12:19:28;2.90;99.90
6252;DHT22;3159;52.414;9.784;2023-03-07T12:22:17;3.10;99.90
6252;DHT22;3159;52.414;9.784;2023-03-07T12:25:02;3.20;99.90
6252;DHT22;3159;52.414;9.784;2023-03-07T12:27:34;3.10;99.90
6252;DHT22;3159;52.414;9.784;2023-03-07T12:30:11;3.00;99.90
6252;DHT22;3159;52.414;9.784;2023-03-07T12:32:40;3.10;99.90
6252;DHT22;3159;52.414;9.784;2023-03-07T12:35:14;3.20;99.90
6252;DHT22;3159;52.414;9.784;2023-03-07T12:37:45;3.30;99.90
6252;DHT22;3159;52.414;9.784;2023-03-07T12:40:19;3.20;99.90
6252;DHT22;3159;52.414;9.784;2023-03-07T12:42:52;3.30;99.90
6252;DHT22;3159;52.414;9.784;2023-03-07T12:45:23;3.20;99.90
6252;DHT22;3159;52.414;9.784;2023-03-07T12:47:56;3.20;99.90
6252;DHT22;3159;52.414;9.784;2023-03-07T12:50:28;3.20;99.90
6252;DHT22;3159;52.414;9.784;2023-03-07T12:53:00;3.10;99.90
6252;DHT22;3159;52.414;9.784;2023-03-07T12:55:34;3.20;99.90
6252;DHT22;3159;52.414;9.784;2023-03-07T12:58:06;3.30;99.90
6252;DHT22;3159;52.414;9.784;2023-03-07T13:00:39;3.20;99.90
6252;DHT22;3159;52.414;9.784;2023-03-07T13:03:13;3.30;99.90
6252;DHT22;3159;52.414;9.784;2023-03-07T13:05:43;3.40;99.90
6252;DHT22;3159;52.414;9.784;2023-03-07T13:08:22;3.40;99.90
6252;DHT22;3159;52.414;9.784;2023-03-07T13:10:49;3.20;99.90
6252;DHT22;3159;52.414;9.784;2023-03-07T13:13:48;3.30;99.90
6252;DHT22;3159;52.414;9.784;2023-03-07T13:19:47;3.20;99.90
6252;DHT22;3159;52.414;9.784;2023-03-07T13:28:52;3.10;99.90
6252;DHT22;3159;52.414;9.784;2023-03-07T13:31:38;2.90;99.90
6252;DHT22;3159;52.414;9.784;2023-03-07T13:37:48;2.50;99.90
6252;DHT22;3159;52.414;9.784;2023-03-07T13:46:28;2.50;99.90
6252;DHT22;3159;52.414;9.784;2023-03-07T13:48:59;2.50;99.90
6252;DHT22;3159;52.414;9.784;2023-03-07T13:51:27;2.40;99.90
6252;DHT22;3159;52.414;9.784;2023-03-07T13:54:00;2.50;99.90
6252;DHT22;3159;52.414;9.784;2023-03-07T13:56:29;2.50;99.90
6252;DHT22;3159;52.414;9.784;2023-03-07T13:59:03;2.50;99.90
6252;DHT22;3159;52.414;9.784;2023-03-07T14:01:41;2.40;99.90
6252;DHT22;3159;52.414;9.784;2023-03-07T14:04:12;2.30;99.90
6252;DHT22;3159;52.414;9.784;2023-03-07T14:06:43;2.40;99.90
6252;DHT22;3159;52.414;9.784;2023-03-07T14:09:14;2.40;99.90
6252;DHT22;3159;52.414;9.784;2023-03-07T14:11:50;2.50;99.90
6252;DHT22;3159;52.414;9.784;2023-03-07T14:14:46;2.40;99.90
6252;DHT22;3159;52.414;9.784;2023-03-07T14:17:32;2.50;99.90
6252;DHT22;3159;52.414;9.784;2023-03-07T14:20:08;2.60;99.90
6252;DHT22;3159;52.414;9.784;2023-03-07T14:22:47;2.60;99.90
6252;DHT22;3159;52.414;9.784;2023-03-07T14:25:21;2.40;99.90
6252;DHT22;3159;52.414;9.784;2023-03-07T14:27:54;2.40;99.90
6252;DHT22;3159;52.414;9.784;2023-03-07T14:30:23;2.40;99.90
6252;DHT22;3159;52.414;9.784;2023-03-07T14:32:50;2.30;99.90
6252;DHT22;3159;52.414;9.784;2023-03-07T14:35:32;2.20;99.90
6252;DHT22;3159;52.414;9.784;2023-03-07T14:37:59;2.40;99.90
6252;DHT22;3159;52.414;9.784;2023-03-07T14:40:32;2.50;99.90
6252;DHT22;3159;52.414;9.784;2023-03-07T14:43:17;2.50;99.90
6252;DHT22;3159;52.414;9.784;2023-03-07T14:45:47;2.50;99.90
6252;DHT22;3159;52.414;9.784;2023-03-07T14:48:30;2.30;99.90
6252;DHT22;3159;52.414;9.784;2023-03-07T14:51:04;2.50;99.90
6252;DHT22;3159;52.414;9.784;2023-03-07T14:53:34;2.40;99.90
6252;DHT22;3159;52.414;9.784;2023-03-07T14:56:05;2.40;99.90
6252;DHT22;3159;52.414;9.784;2023-03-07T14:58:34;2.40;99.90
6252;DHT22;3159;52.414;9.784;2023-03-07T15:01:03;2.40;99.90
6252;DHT22;3159;52.414;9.784;2023-03-07T15:03:31;2.30;99.90
6252;DHT22;3159;52.414;9.784;2023-03-07T15:06:00;2.30;99.90
6252;DHT22;3159;52.414;9.784;2023-03-07T15:08:29;2.20;99.90
6252;DHT22;3159;52.414;9.784;2023-03-07T15:11:01;2.30;99.90
6252;DHT22;3159;52.414;9.784;2023-03-07T15:13:35;2.40;99.90
6252;DHT22;3159;52.414;9.784;2023-03-07T15:16:06;2.40;99.90
6252;DHT22;3159;52.414;9.784;2023-03-07T15:18:35;2.30;99.90
6252;DHT22;3159;52.414;9.784;2023-03-07T15:21:04;2.30;99.90
6252;DHT22;3159;52.414;9.784;2023-03-07T15:23:31;2.10;99.90
6252;DHT22;3159;52.414;9.784;2023-03-07T15:26:00;2.20;99.90
6252;DHT22;3159;52.414;9.784;2023-03-07T15:28:33;2.30;99.90
6252;DHT22;3159;52.414;9.784;2023-03-07T15:31:01;2.20;99.90
6252;DHT22;3159;52.414;9.784;2023-03-07T15:33:30;2.20;99.90
6252;DHT22;3159;52.414;9.784;2023-03-07T15:36:18;2.20;99.90
6252;DHT22;3159;52.414;9.784;2023-03-07T15:38:46;2.10;99.90
6252;DHT22;3159;52.414;9.784;2023-03-07T15:41:27;2.10;99.90
6252;DHT22;3159;52.414;9.784;2023-03-07T15:44:05;2.20;99.90
6252;DHT22;3159;52.414;9.784;2023-03-07T15:46:33;2.30;99.90
6252;DHT22;3159;52.414;9.784;2023-03-07T15:49:01;2.30;99.90
6252;DHT22;3159;52.414;9.784;2023-03-07T15:51:34;2.40;99.90
6252;DHT22;3159;52.414;9.784;2023-03-07T15:54:10;2.20;99.90
6252;DHT22;3159;52.414;9.784;2023-03-07T15:56:41;2.30;99.90
6252;DHT22;3159;52.414;9.784;2023-03-07T15:59:25;2.50;99.90
6252;DHT22;3159;52.414;9.784;2023-03-07T16:01:53;2.30;99.90
6252;DHT22;3159;52.414;9.784;2023-03-07T16:04:36;2.30;99.90
6252;DHT22;3159;52.414;9.784;2023-03-07T16:07:03;2.20;99.90
6252;DHT22;3159;52.414;9.784;2023-03-07T16:09:31;2.30;99.90
6252;DHT22;3159;52.414;9.784;2023-03-07T16:11:58;2.30;99.90
6252;DHT22;3159;52.414;9.784;2023-03-07T16:14:29;2.40;99.90
6252;DHT22;3159;52.414;9.784;2023-03-07T16:16:59;2.40;99.90
6252;DHT22;3159;52.414;9.784;2023-03-07T16:19:26;2.30;99.90
6252;DHT22;3159;52.414;9.784;2023-03-07T16:21:52;2.40;99.90
6252;DHT22;3159;52.414;9.784;2023-03-07T16:24:19;2.40;99.90
6252;DHT22;3159;52.414;9.784;2023-03-07T16:26:47;2.40;99.90
6252;DHT22;3159;52.414;9.784;2023-03-07T16:29:15;2.30;99.90
6252;DHT22;3159;52.414;9.784;2023-03-07T16:31:44;2.30;99.90
6252;DHT22;3159;52.414;9.784;2023-03-07T16:34:14;2.30;99.90
6252;DHT22;3159;52.414;9.784;2023-03-07T16:36:41;2.30;99.90
6252;DHT22;3159;52.414;9.784;2023-03-07T16:39:08;2.40;99.90
6252;DHT22;3159;52.414;9.784;2023-03-07T16:41:36;2.40;99.90
6252;DHT22;3159;52.414;9.784;2023-03-07T16:44:04;2.40;99.90
6252;DHT22;3159;52.414;9.784;2023-03-07T16:46:33;2.30;99.90
6252;DHT22;3159;52.414;9.784;2023-03-07T16:49:02;2.30;99.90
6252;DHT22;3159;52.414;9.784;2023-03-07T16:51:29;2.40;99.90
6252;DHT22;3159;52.414;9.784;2023-03-07T16:53:56;2.30;99.90
6252;DHT22;3159;52.414;9.784;2023-03-07T16:56:28;2.30;99.90
6252;DHT22;3159;52.414;9.784;2023-03-07T16:58:57;2.40;99.90
6252;DHT22;3159;52.414;9.784;2023-03-07T17:01:25;2.40;99.90